This is the latest recevied weather packets stored in our database for station/object EA4BCR. If no packets are shown the sender has not sent any weather packets the latest 10 day(s).
| Time | Temp. | Humidity | Pressure | Rain* | Wind** | Luminosity | Snow |
|---|---|---|---|---|---|---|---|
| 1777975253 | 15° C | 49% | 1011.9 hPa | - | - | - | - |
| 1777974654 | 15.56° C | 50% | 1011.8 hPa | - | - | - | - |
| 1777974054 | 16.11° C | 50% | 1011.5 hPa | - | - | - | - |
| 1777973453 | 16.11° C | 55% | 1011.5 hPa | - | - | - | - |
| 1777972853 | 15.56° C | 58% | 1011.5 hPa | - | - | - | - |
| 1777972253 | 16.11° C | 61% | 1011.5 hPa | - | - | - | - |
| 1777971654 | 15.56° C | 63% | 1011.7 hPa | - | - | - | - |
| 1777971053 | 15° C | 66% | 1012.1 hPa | - | - | - | - |
| 1777970454 | 14.44° C | 68% | 1012.2 hPa | - | - | - | - |
| 1777969853 | 14.44° C | 71% | 1012.4 hPa | - | - | - | - |
| 1777969253 | 15° C | 77% | 1012 hPa | - | - | - | - |
| 1777968653 | 13.89° C | 78% | 1012.5 hPa | - | - | - | - |
| 1777968054 | 13.89° C | 77% | 1012.7 hPa | - | - | - | - |
| 1777967453 | 13.89° C | 70% | 1012.6 hPa | - | - | - | - |
| 1777966853 | 13.89° C | 79% | 1012.7 hPa | - | - | - | - |
| 1777966253 | 13.33° C | 81% | 1012.9 hPa | - | - | - | - |
| 1777965653 | 11.67° C | 86% | 1013.3 hPa | - | - | - | - |
| 1777965053 | 12.22° C | 92% | 1013.3 hPa | - | - | - | - |
| 1777964453 | 11.67° C | 94% | 1013.3 hPa | - | - | - | - |
| 1777963853 | 11.67° C | 93% | 1013.5 hPa | - | - | - | - |
| 1777963253 | 11.67° C | 90% | 1013.4 hPa | - | - | - | - |
| 1777962653 | 11.11° C | 93% | 1013.5 hPa | - | - | - | - |
| 1777962053 | 11.11° C | 96% | 1013.5 hPa | - | - | - | - |
| 1777961453 | 10.56° C | 96% | 1013.6 hPa | - | - | - | - |
| 1777960853 | 10.56° C | 99% | 1013.8 hPa | - | - | - | - |
* Rain since midnight (hover to see other rain measurements)
** Current wind speed in m/s (hover to see current wind gust speed)